createdAt,value
2018-12-26T00:01:52.998Z,6.57
2018-12-26T00:06:38.780Z,8.57
2018-12-26T00:11:24.689Z,10.23
2018-12-26T00:16:10.504Z,7.73
2018-12-26T00:20:56.266Z,8.90
2018-12-26T00:25:41.995Z,8.47
2018-12-26T00:30:28.272Z,4.90
2018-12-26T00:35:14.185Z,5.37
2018-12-26T00:39:59.953Z,2.60
2018-12-26T00:44:45.715Z,3.03
2018-12-26T00:49:31.491Z,2.30
2018-12-26T00:54:17.237Z,5.93
2018-12-26T00:59:02.921Z,4.10
2018-12-26T01:03:48.767Z,6.40
2018-12-26T01:08:34.514Z,5.73
2018-12-26T01:13:20.273Z,6.17
2018-12-26T01:18:05.965Z,6.43
2018-12-26T01:22:51.638Z,4.83
2018-12-26T01:27:37.619Z,7.30
2018-12-26T01:32:23.403Z,7.83
2018-12-26T01:37:09.203Z,6.27
2018-12-26T01:41:54.949Z,7.27
2018-12-26T01:46:40.698Z,5.97
2018-12-26T01:51:26.392Z,7.27
2018-12-26T01:56:12.138Z,10.13
2018-12-26T02:00:57.749Z,7.97
2018-12-26T02:05:43.468Z,3.97
2018-12-26T02:10:29.178Z,3.03
2018-12-26T02:15:14.938Z,2.73
2018-12-26T02:20:00.662Z,1.33
2018-12-26T02:24:46.415Z,1.20
2018-12-26T02:29:32.257Z,1.27
2018-12-26T02:34:17.896Z,5.83
2018-12-26T02:39:03.957Z,6.20
2018-12-26T02:43:49.716Z,8.40
2018-12-26T02:48:35.436Z,7.33
2018-12-26T02:53:21.101Z,5.90
2018-12-26T02:58:06.829Z,8.10
2018-12-26T03:02:52.603Z,5.07
2018-12-26T03:07:38.385Z,5.00
2018-12-26T03:12:24.201Z,5.13
2018-12-26T03:17:10.048Z,3.53
2018-12-26T03:21:55.837Z,4.60
2018-12-26T03:26:41.626Z,6.00
2018-12-26T03:31:27.449Z,6.67
2018-12-26T03:36:13.289Z,4.43
2018-12-26T03:40:59.105Z,5.23
2018-12-26T03:45:44.946Z,4.80
2018-12-26T03:50:30.635Z,4.30
2018-12-26T03:55:16.492Z,4.47
2018-12-26T04:00:02.259Z,3.53
2018-12-26T04:04:48.039Z,3.87
2018-12-26T04:09:33.699Z,4.57
2018-12-26T04:14:19.467Z,5.33
2018-12-26T04:19:05.261Z,5.00
2018-12-26T04:23:51.077Z,3.27
2018-12-26T04:28:36.795Z,3.37
2018-12-26T04:33:22.460Z,2.20
2018-12-26T04:38:08.715Z,3.57
2018-12-26T04:42:54.439Z,6.13
2018-12-26T04:47:40.129Z,4.47
2018-12-26T04:52:25.883Z,3.70
2018-12-26T04:57:11.566Z,3.87
2018-12-26T05:01:57.323Z,4.43
2018-12-26T05:06:43.055Z,9.23
2018-12-26T05:11:28.977Z,4.53
2018-12-26T05:16:15.120Z,4.73
2018-12-26T05:21:00.877Z,3.43
2018-12-26T05:25:46.553Z,3.40
2018-12-26T05:30:32.360Z,5.27
2018-12-26T05:35:18.105Z,5.63
2018-12-26T05:40:03.915Z,4.30
2018-12-26T05:44:49.610Z,6.20
2018-12-26T05:49:35.582Z,2.97
2018-12-26T05:54:21.303Z,6.17
2018-12-26T05:59:07.191Z,6.00
2018-12-26T06:03:53.083Z,3.23
2018-12-26T06:08:38.782Z,5.50
2018-12-26T06:13:24.491Z,2.43
2018-12-26T06:18:10.301Z,4.83
2018-12-26T06:22:56.042Z,4.53
2018-12-26T06:27:41.725Z,2.60
2018-12-26T06:32:27.512Z,4.37
2018-12-26T06:37:13.284Z,2.97
2018-12-26T06:41:58.981Z,3.83
2018-12-26T06:46:44.790Z,5.80
2018-12-26T06:51:33.165Z,4.97
2018-12-26T06:56:18.888Z,9.43
2018-12-26T07:01:04.615Z,9.27
2018-12-26T07:05:50.315Z,7.03
2018-12-26T07:10:36.104Z,12.27
2018-12-26T07:15:21.901Z,14.00
2018-12-26T07:20:07.826Z,8.00
2018-12-26T07:24:53.566Z,6.60
2018-12-26T07:29:39.205Z,5.37
2018-12-26T07:34:24.971Z,11.57
2018-12-26T07:39:10.713Z,6.43
2018-12-26T07:43:56.503Z,4.40
2018-12-26T07:48:42.273Z,5.40
2018-12-26T07:53:28.232Z,8.27
2018-12-26T07:58:17.759Z,6.53
2018-12-26T08:03:01.297Z,7.20
2018-12-26T08:07:47.104Z,9.40
2018-12-26T08:12:32.947Z,17.87
2018-12-26T08:17:37.620Z,15.90
2018-12-26T08:22:23.378Z,10.80
2018-12-26T08:27:09.189Z,15.53
2018-12-26T08:31:54.947Z,14.17
2018-12-26T08:36:40.903Z,11.83
2018-12-26T08:41:26.667Z,15.07
2018-12-26T08:46:12.419Z,17.57
2018-12-26T08:50:58.147Z,19.87
2018-12-26T08:55:43.908Z,16.13
2018-12-26T09:00:29.648Z,15.20
2018-12-26T09:05:15.519Z,15.03
2018-12-26T09:10:01.363Z,17.10
2018-12-26T09:14:47.036Z,17.30
2018-12-26T09:19:32.851Z,19.07
2018-12-26T09:24:18.602Z,17.93
2018-12-26T09:29:04.523Z,20.33
2018-12-26T09:33:50.250Z,19.13
2018-12-26T09:38:36.003Z,19.40
2018-12-26T09:43:21.860Z,17.90
2018-12-26T09:48:07.752Z,17.57
2018-12-26T09:52:53.494Z,17.77
2018-12-26T09:57:39.324Z,19.03
2018-12-26T10:02:25.223Z,13.80
2018-12-26T10:07:11.022Z,14.87
2018-12-26T10:11:56.796Z,17.87
2018-12-26T10:16:42.650Z,15.50
2018-12-26T10:21:28.480Z,16.93
2018-12-26T10:26:14.331Z,16.77
2018-12-26T10:31:00.158Z,18.00
2018-12-26T10:35:45.948Z,18.57
2018-12-26T10:40:31.724Z,19.27
2018-12-26T10:45:17.802Z,20.90
2018-12-26T10:50:03.784Z,22.47
2018-12-26T10:54:52.480Z,21.03
2018-12-26T10:59:38.361Z,19.17
2018-12-26T11:04:24.155Z,20.03
2018-12-26T11:09:09.988Z,17.90
2018-12-26T11:13:55.692Z,17.27
2018-12-26T11:18:41.443Z,16.90
2018-12-26T11:23:27.116Z,19.33
2018-12-26T11:28:12.914Z,17.27
2018-12-26T11:33:01.285Z,16.10
2018-12-26T11:37:46.723Z,16.77
2018-12-26T11:42:32.604Z,14.83
2018-12-26T11:47:18.421Z,15.63
2018-12-26T11:52:04.331Z,15.27
2018-12-26T11:56:50.138Z,18.93
2018-12-26T12:01:36.045Z,17.07
2018-12-26T12:06:21.964Z,18.47
2018-12-26T12:11:07.867Z,20.30
2018-12-26T12:15:53.796Z,15.07
2018-12-26T12:20:39.786Z,16.53
2018-12-26T12:25:25.554Z,17.37
2018-12-26T12:30:11.322Z,17.93
2018-12-26T12:34:57.211Z,13.23
2018-12-26T12:39:43.209Z,15.57
2018-12-26T12:44:29.083Z,13.60
2018-12-26T12:49:14.868Z,15.90
2018-12-26T12:54:00.738Z,17.40
2018-12-26T12:58:46.626Z,17.27
2018-12-26T13:03:32.503Z,17.53
2018-12-26T13:08:18.281Z,18.57
2018-12-26T13:13:04.172Z,17.73
2018-12-26T13:17:49.988Z,17.83
2018-12-26T13:22:35.731Z,20.00
2018-12-26T13:27:24.521Z,17.70
2018-12-26T13:32:10.468Z,15.93
2018-12-26T13:36:56.330Z,19.17
2018-12-26T13:41:42.149Z,18.23
2018-12-26T13:46:33.788Z,19.07
2018-12-26T13:51:15.917Z,17.70
2018-12-26T13:56:03.727Z,17.27
2018-12-26T14:00:49.549Z,19.27
2018-12-26T14:05:35.309Z,19.70
2018-12-26T14:10:21.091Z,19.53
2018-12-26T14:15:08.045Z,19.80
2018-12-26T14:19:53.798Z,21.90
2018-12-26T14:24:39.716Z,22.57
2018-12-26T14:29:25.474Z,23.93
2018-12-26T14:34:11.326Z,25.27
2018-12-26T14:38:57.116Z,24.83
2018-12-26T14:43:43.175Z,26.33
2018-12-26T14:48:28.901Z,28.63
2018-12-26T14:53:14.657Z,27.40
2018-12-26T14:58:00.486Z,30.10
2018-12-26T15:02:46.343Z,30.60
2018-12-26T15:07:32.081Z,29.10
2018-12-26T15:12:18.109Z,31.03
2018-12-26T15:17:04.065Z,30.43
2018-12-26T15:21:50.002Z,36.10
2018-12-26T15:26:35.750Z,28.80
2018-12-26T15:31:21.503Z,31.67
2018-12-26T15:36:07.268Z,38.37
2018-12-26T15:40:53.080Z,34.63
2018-12-26T15:45:38.971Z,37.33
2018-12-26T15:50:24.750Z,36.47
2018-12-26T15:55:10.600Z,35.30
2018-12-26T15:59:56.408Z,36.60
2018-12-26T16:04:42.162Z,35.90
2018-12-26T16:09:27.973Z,37.30
2018-12-26T16:14:13.645Z,43.23
2018-12-26T16:18:59.435Z,41.13
2018-12-26T16:23:45.180Z,38.13
2018-12-26T16:28:30.899Z,39.03
2018-12-26T16:33:16.645Z,39.77
2018-12-26T16:38:02.402Z,39.27
2018-12-26T16:42:48.160Z,46.43
2018-12-26T16:47:33.981Z,42.17
2018-12-26T16:52:19.747Z,51.87
2018-12-26T16:57:05.542Z,56.13
2018-12-26T17:01:51.279Z,63.67
2018-12-26T17:06:36.990Z,42.43
2018-12-26T17:11:22.775Z,40.07
2018-12-26T17:16:08.702Z,37.13
2018-12-26T17:20:54.481Z,42.47
2018-12-26T17:25:40.223Z,41.67
2018-12-26T17:30:26.005Z,41.03
2018-12-26T17:35:11.875Z,44.03
2018-12-26T17:39:57.886Z,44.53
2018-12-26T17:44:43.681Z,41.60
2018-12-26T17:49:29.418Z,50.17
2018-12-26T17:54:44.778Z,47.13
2018-12-26T17:59:40.824Z,44.97
2018-12-26T18:04:26.685Z,45.60
2018-12-26T18:09:12.443Z,54.20
2018-12-26T18:13:58.377Z,48.57
2018-12-26T18:18:44.187Z,52.67
2018-12-26T18:23:30.167Z,44.03
2018-12-26T18:28:16.183Z,52.20
2018-12-26T18:33:02.174Z,54.70
2018-12-26T18:37:48.260Z,60.03
2018-12-26T18:42:34.159Z,57.03
2018-12-26T18:47:20.012Z,62.10
2018-12-26T18:52:06.109Z,61.47
2018-12-26T18:56:52.322Z,59.57
2018-12-26T19:01:38.283Z,50.63
2018-12-26T19:06:24.270Z,57.23
2018-12-26T19:11:10.015Z,54.27
2018-12-26T19:15:55.987Z,53.67
2018-12-26T19:20:41.845Z,57.97
2018-12-26T19:25:27.967Z,58.50
2018-12-26T19:30:14.371Z,60.57
2018-12-26T19:35:00.249Z,61.20
2018-12-26T19:39:47.095Z,61.40
2018-12-26T19:44:33.487Z,54.00
2018-12-26T19:49:19.454Z,57.07
2018-12-26T19:54:05.220Z,53.43
2018-12-26T19:58:51.230Z,58.43
2018-12-26T20:03:37.178Z,56.37
2018-12-26T20:08:23.189Z,62.47
2018-12-26T20:13:09.547Z,61.93
2018-12-26T20:17:58.528Z,62.63
2018-12-26T20:22:44.476Z,67.47
2018-12-26T20:27:30.958Z,62.37
2018-12-26T20:32:16.806Z,58.60
2018-12-26T20:37:02.813Z,62.33
2018-12-26T20:41:49.310Z,59.13
2018-12-26T20:46:35.479Z,58.30
2018-12-26T20:51:22.151Z,58.63
2018-12-26T20:56:08.524Z,56.60
2018-12-26T21:00:54.858Z,64.53
2018-12-26T21:05:41.115Z,59.07
2018-12-26T21:10:27.455Z,63.37
2018-12-26T21:15:13.721Z,59.67
2018-12-26T21:19:59.997Z,138.83
2018-12-26T21:24:46.325Z,94.47
2018-12-26T21:29:32.662Z,73.20
2018-12-26T21:34:37.455Z,72.13
2018-12-26T21:39:23.335Z,69.20
2018-12-26T21:44:09.632Z,67.23
2018-12-26T21:48:55.630Z,72.87
2018-12-26T21:53:42.798Z,132.43
2018-12-26T21:58:28.918Z,91.00
2018-12-26T22:03:15.246Z,76.60
2018-12-26T22:08:01.357Z,71.50
2018-12-26T22:12:47.356Z,67.90
2018-12-26T22:17:33.166Z,67.17
2018-12-26T22:22:19.157Z,62.00
2018-12-26T22:27:05.002Z,67.33
2018-12-26T22:31:50.948Z,56.33
2018-12-26T22:36:36.837Z,67.67
2018-12-26T22:41:22.699Z,68.97
2018-12-26T22:46:08.472Z,68.17
2018-12-26T22:50:54.817Z,68.70
2018-12-26T22:55:40.605Z,63.33
2018-12-26T23:00:41.356Z,63.90
2018-12-26T23:05:27.157Z,58.83
2018-12-26T23:10:12.993Z,75.63
2018-12-26T23:14:58.786Z,95.40
2018-12-26T23:19:44.619Z,67.90
2018-12-26T23:24:30.513Z,74.67
2018-12-26T23:29:16.481Z,91.23
2018-12-26T23:34:02.381Z,95.50
2018-12-26T23:38:48.268Z,89.53
2018-12-26T23:43:34.036Z,85.53
2018-12-26T23:48:20.346Z,78.97
2018-12-26T23:53:06.249Z,67.57
2018-12-26T23:57:52.065Z,63.67
